Tiffin, Iowa
Current Conditions -  °F | °C
As of 11:52 PM on Saturday 25 Oct 2014 (Local Time) from KIOW Reporting Station
Clear Clear  
Wind Chill: 45°   Ceiling: Unl
Heat Index: 45°   Visibility: 10mi
Dew Point: 38°   Wind: 0mph
Humidity: 76%   Direction: NA
Pressure: 30.07"   Gusts: NA
Location:  41.71°N, 91.66°W
Report Text: KIOW 260452Z AUTO 00000KT 10SM CLR 07/03 A3007 RMK AO2 SLP182 T00720033 $
Loading
Personal Weather Stations






























Interactive Weather Map
Tropical Storm Tracking
New forecast layout! Learn more

10-Day Weather Forecast

Advertisements
Track Severe Weather on mobile